Dades meteomassalio
Diari Summary for Diciembre 28, 2017 Units:  Metric    English   Both
« Previous Day
Next Day »
Diari Semanal Mensual Anual Personalitzat
  Maxima: Minima: Mijana:
Temperatura: -17.8 °C -15 °C -13.4 °C
Rosada: -17.8 °C -17.6 °C -16 °C
Humitat: Humidity % 67 % 73 %
Velocitat del vent: 0 km/h 0 km/h 23.3 km/h
Racha vent: 0 km/h - -
Vent:- - NW
Pressio: 0 hPa 34212.1 hPa -
Pluja: 0 mm    
Historical Graphs
 
 
Tabular Data for Diciembre 28, 2017
Time Temperature Dew Point Pressure Wind Wind Speed Wind Gust Humidity Rainfall Rate (Hourly) solar Conditions
-17.8 °C -17.8 °C 0 hPa Calm     Humidity % 0 mm SolarRadiationWatts/m^2 W/m2 Conditions
00:02 -13.8 °C -16.8 °C 34327.3 hPa North 47.6 km/h 47.6 km/h 68 % 0 mm 0.0 W/m2 RA
00:03 -13.8 °C -16.8 °C 34327.3 hPa NNW 47.6 km/h 47.6 km/h 68 % 0 mm 0.0 W/m2 RA
00:06 -13.8 °C -16.8 °C 34327.3 hPa NW 32.8 km/h 32.8 km/h 68 % 0 mm 0.0 W/m2 CLR
00:09 -13.8 °C -16.8 °C 34327.3 hPa North 35.7 km/h 35.7 km/h 68 % 0 mm 0.0 W/m2 CLR
00:13 -14.1 °C -17.1 °C 34327.3 hPa NW 35.7 km/h 35.7 km/h 68 % 0 mm 0.0 W/m2 CLR
00:17 -14.1 °C -17.1 °C 34327.3 hPa NW 38.8 km/h 38.8 km/h 68 % 0 mm 0.0 W/m2 CLR
00:22 -14.1 °C -17.1 °C 34327.3 hPa NW 29.8 km/h 29.8 km/h 68 % 0 mm 0.0 W/m2 CLR
00:23 -14.1 °C -17.1 °C 34327.3 hPa NW 36.2 km/h 36.2 km/h 68 % 0 mm 0.0 W/m2 CLR
00:27 -14.1 °C -17.1 °C 34313.7 hPa NNW 29.8 km/h 29.8 km/h 68 % 0 mm 0.0 W/m2 CLR
00:28 -14.1 °C -17.1 °C 34313.7 hPa NNW 29.8 km/h 29.8 km/h 68 % 0 mm 0.0 W/m2 CLR
00:32 -14.1 °C -17.1 °C 34327.3 hPa NW 23.8 km/h 23.8 km/h 68 % 0 mm 0.0 W/m2 CLR
00:34 -14.1 °C -17 °C 34313.7 hPa NNW 26.9 km/h 26.9 km/h 69 % 0 mm 0.0 W/m2 CLR
00:39 -14.1 °C -17.1 °C 34313.7 hPa NW 23.8 km/h 23.8 km/h 68 % 0 mm 0.0 W/m2 CLR
00:40 -14.1 °C -17.1 °C 34313.7 hPa NNW 31.1 km/h 31.1 km/h 68 % 0 mm 0.0 W/m2 CLR
00:43 -14.1 °C -17.1 °C 34313.7 hPa NNW 38.8 km/h 38.8 km/h 68 % 0 mm 0.0 W/m2 CLR
00:46 -14.1 °C -17 °C 34313.7 hPa NW 38.8 km/h 38.8 km/h 69 % 0 mm 0.0 W/m2 CLR
00:51 -14.1 °C -17.1 °C 34313.7 hPa NNW 38.8 km/h 38.8 km/h 68 % 0 mm 0.0 W/m2 CLR
00:53 -14.1 °C -17 °C 34313.7 hPa NW 29.8 km/h 29.8 km/h 69 % 0 mm 0.0 W/m2 CLR
00:58 -14.1 °C -17.1 °C 34303.6 hPa NNW 36.2 km/h 36.2 km/h 68 % 0 mm 0.0 W/m2 CLR
01:03 -14.1 °C -17 °C 34303.6 hPa NW 38.8 km/h 38.8 km/h 69 % 0 mm 0.0 W/m2 CLR
01:04 -14.1 °C -17 °C 34313.7 hPa NNW 35.7 km/h 35.7 km/h 69 % 0 mm 0.0 W/m2 CLR
01:08 -14.1 °C -17 °C 34313.7 hPa NW 29.8 km/h 29.8 km/h 69 % 0 mm 0.0 W/m2 CLR
01:10 -14.1 °C -16.9 °C 34313.7 hPa NW 32.8 km/h 32.8 km/h 70 % 0 mm 0.0 W/m2 CLR
01:13 -14.1 °C -16.8 °C 34313.7 hPa NW 29.8 km/h 29.8 km/h 71 % 0 mm 0.0 W/m2 CLR
01:15 -14.1 °C -16.8 °C 34303.6 hPa NW 23.8 km/h 23.8 km/h 71 % 0 mm 0.0 W/m2 CLR
01:19 -14.1 °C -16.8 °C 34313.7 hPa NNW 31.1 km/h 31.1 km/h 71 % 0 mm 0.0 W/m2 CLR
01:24 -14.1 °C -16.8 °C 34303.6 hPa NNW 29.8 km/h 29.8 km/h 71 % 0 mm 0.0 W/m2 CLR
01:28 -14.1 °C -16.7 °C 34313.7 hPa NW 29.8 km/h 29.8 km/h 72 % 0 mm 0.0 W/m2 CLR
01:33 -14.1 °C -16.8 °C 34313.7 hPa North 50.7 km/h 50.7 km/h 71 % 0 mm 0.0 W/m2 CLR
01:38 -14.1 °C -16.8 °C 34313.7 hPa NNW 38.8 km/h 38.8 km/h 71 % 0 mm 0.0 W/m2 CLR
01:39 -14.1 °C -16.8 °C 34313.7 hPa NW 29.8 km/h 29.8 km/h 71 % 0 mm 0.0 W/m2 CLR
01:44 -14.1 °C -16.9 °C 34313.7 hPa NW 38.8 km/h 38.8 km/h 70 % 0 mm 0.0 W/m2 CLR
01:45 -14.1 °C -16.8 °C 34303.6 hPa NW 38.8 km/h 38.8 km/h 71 % 0 mm 0.0 W/m2 CLR
01:47 -14.1 °C -16.9 °C 34303.6 hPa NW 47.6 km/h 47.6 km/h 70 % 0 mm 0.0 W/m2 CLR
01:51 -14.1 °C -16.9 °C 34303.6 hPa NNW 47.6 km/h 47.6 km/h 70 % 0 mm 0.0 W/m2 CLR
01:52 -14.1 °C -16.9 °C 34303.6 hPa NW 47.6 km/h 47.6 km/h 70 % 0 mm 0.0 W/m2 CLR
01:56 -14.1 °C -16.9 °C 34293.4 hPa NNW 26.9 km/h 26.9 km/h 70 % 0 mm 0.0 W/m2 CLR
02:01 -13.8 °C -16.6 °C 34293.4 hPa NNW 50.7 km/h 50.7 km/h 70 % 0 mm 0.0 W/m2 CLR
02:02 -13.8 °C -16.6 °C 34293.4 hPa NNW 50.7 km/h 50.7 km/h 70 % 0 mm 0.0 W/m2 CLR
02:07 -13.8 °C -16.6 °C 34293.4 hPa North 47.6 km/h 47.6 km/h 70 % 0 mm 0.0 W/m2 CLR
02:08 -13.8 °C -16.6 °C 34293.4 hPa NNW 44.1 km/h 44.1 km/h 70 % 0 mm 0.0 W/m2 CLR
02:09 -13.8 °C -16.7 °C 34293.4 hPa NW 44.7 km/h 44.7 km/h 69 % 0 mm 0.0 W/m2 CLR
02:13 -13.8 °C -16.7 °C 34293.4 hPa NNW 53.6 km/h 53.6 km/h 69 % 0 mm 0.0 W/m2 CLR
02:15 -13.8 °C -16.7 °C 34293.4 hPa NNW 53.6 km/h 53.6 km/h 69 % 0 mm 0.0 W/m2 CLR
02:19 -13.8 °C -16.7 °C 34293.4 hPa North 41.7 km/h 41.7 km/h 69 % 0 mm 0.0 W/m2 CLR
02:24 -13.8 °C -16.7 °C 34293.4 hPa North 46.7 km/h 46.7 km/h 69 % 0 mm 0.0 W/m2 CLR
02:25 -13.8 °C -16.7 °C 34293.4 hPa North 44.1 km/h 44.1 km/h 69 % 0 mm 0.0 W/m2 CLR
02:30 -13.8 °C -16.7 °C 34293.4 hPa NNW 47.6 km/h 47.6 km/h 69 % 0 mm 0.0 W/m2 CLR
02:35 -13.8 °C -16.7 °C 34293.4 hPa NNW 41.7 km/h 41.7 km/h 69 % 0 mm 0.0 W/m2 CLR
02:36 -13.8 °C -16.7 °C 34293.4 hPa NNW 47.6 km/h 47.6 km/h 69 % 0 mm 0.0 W/m2 CLR
02:41 -14.1 °C -17 °C 34293.4 hPa North 50.7 km/h 50.7 km/h 69 % 0 mm 0.0 W/m2 CLR
02:43 -14.1 °C -17 °C 34293.4 hPa North 35.7 km/h 35.7 km/h 69 % 0 mm 0.0 W/m2 CLR
02:47 -14.1 °C -16.9 °C 34293.4 hPa NNW 32.8 km/h 32.8 km/h 70 % 0 mm 0.0 W/m2 CLR
02:52 -14.1 °C -16.9 °C 34293.4 hPa NNW 38.8 km/h 38.8 km/h 70 % 0 mm 0.0 W/m2 CLR
02:53 -14.1 °C -16.9 °C 34293.4 hPa North 44.1 km/h 44.1 km/h 70 % 0 mm 0.0 W/m2 CLR
02:58 -14.1 °C -16.9 °C 34293.4 hPa NNW 41.7 km/h 41.7 km/h 70 % 0 mm 0.0 W/m2 CLR
03:00 -14.1 °C -16.9 °C 34293.4 hPa North 49.2 km/h 49.2 km/h 70 % 0 mm 0.0 W/m2 CLR
03:05 -14.1 °C -16.9 °C 34293.4 hPa North 59.5 km/h 59.5 km/h 70 % 0 mm 0.0 W/m2 CLR
03:06 -14.1 °C -16.8 °C 34293.4 hPa NNW 44.7 km/h 44.7 km/h 71 % 0 mm 0.0 W/m2 CLR
03:11 -14.1 °C -16.8 °C 34293.4 hPa NNW 41.7 km/h 41.7 km/h 71 % 0 mm 0.0 W/m2 CLR
03:14 -14.1 °C -16.7 °C 34293.4 hPa NNW 32.8 km/h 32.8 km/h 72 % 0 mm 0.0 W/m2 CLR
03:19 -14.1 °C -16.7 °C 34293.4 hPa NNW 32.8 km/h 32.8 km/h 72 % 0 mm 0.0 W/m2 CLR
03:20 -14.1 °C -16.7 °C 34293.4 hPa NW 32.8 km/h 32.8 km/h 72 % 0 mm 0.0 W/m2 CLR
03:21 -14.1 °C -16.7 °C 34293.4 hPa North 38.8 km/h 38.8 km/h 72 % 0 mm 0.0 W/m2 CLR
03:25 -14.4 °C -17 °C 34293.4 hPa NNW 29.8 km/h 29.8 km/h 72 % 0 mm 0.0 W/m2 CLR
03:30 -14.4 °C -17 °C 34279.9 hPa NW 35.7 km/h 35.7 km/h 72 % 0 mm 0.0 W/m2 CLR
03:31 -14.4 °C -17 °C 34279.9 hPa NW 35.7 km/h 35.7 km/h 72 % 0 mm 0.0 W/m2 CLR
03:33 -14.4 °C -17 °C 34279.9 hPa NW 35.7 km/h 35.7 km/h 72 % 0 mm 0.0 W/m2 CLR
03:37 -14.4 °C -17 °C 34279.9 hPa NNW 29.8 km/h 29.8 km/h 72 % 0 mm 0.0 W/m2 CLR
03:42 -14.4 °C -17 °C 34279.9 hPa NNW 32.8 km/h 32.8 km/h 72 % 0 mm 0.0 W/m2 CLR
03:43 -14.4 °C -17 °C 34279.9 hPa NNW 32.8 km/h 32.8 km/h 72 % 0 mm 0.0 W/m2 CLR
03:48 -14.4 °C -17 °C 34279.9 hPa NW 35.7 km/h 35.7 km/h 72 % 0 mm 0.0 W/m2 CLR
03:53 -14.4 °C -16.9 °C 34279.9 hPa NW 32.8 km/h 32.8 km/h 73 % 0 mm 0.0 W/m2 CLR
03:55 -14.4 °C -16.9 °C 34279.9 hPa NW 32.8 km/h 32.8 km/h 73 % 0 mm 0.0 W/m2 CLR
03:57 -14.4 °C -16.9 °C 34279.9 hPa NNW 29.8 km/h 29.8 km/h 73 % 0 mm 0.0 W/m2 CLR
04:02 -14.4 °C -16.9 °C 34293.4 hPa NNW 26.9 km/h 26.9 km/h 73 % 0 mm 0.0 W/m2 CLR
04:06 -14.4 °C -16.9 °C 34293.4 hPa North 33.6 km/h 33.6 km/h 73 % 0 mm 0.0 W/m2 CLR
04:11 -14.4 °C -16.9 °C 34293.4 hPa NW 31.1 km/h 31.1 km/h 73 % 0 mm 0.0 W/m2 CLR
04:17 -14.4 °C -16.9 °C 34293.4 hPa NW 23.8 km/h 23.8 km/h 73 % 0 mm 0.0 W/m2 CLR
04:21 -14.4 °C -16.9 °C 34293.4 hPa NW 29.8 km/h 29.8 km/h 73 % 0 mm 0.0 W/m2 CLR
04:26 -14.4 °C -16.9 °C 34293.4 hPa NNW 26.9 km/h 26.9 km/h 73 % 0 mm 0.0 W/m2 CLR
04:31 -14.4 °C -16.9 °C 34293.4 hPa NW 35.7 km/h 35.7 km/h 73 % 0 mm 0.0 W/m2 CLR
04:32 -14.4 °C -16.9 °C 34293.4 hPa North 35.7 km/h 35.7 km/h 73 % 0 mm 0.0 W/m2 CLR
04:33 -14.4 °C -16.9 °C 34293.4 hPa NW 26.9 km/h 26.9 km/h 73 % 0 mm 0.0 W/m2 CLR
04:37 -14.4 °C -16.9 °C 34293.4 hPa NW 23.8 km/h 23.8 km/h 73 % 0 mm 0.0 W/m2 CLR
04:41 -14.4 °C -16.9 °C 34293.4 hPa NNW 17.9 km/h 17.9 km/h 73 % 0 mm 0.0 W/m2 CLR
04:43 -14.4 °C -16.9 °C 34293.4 hPa NW 20.9 km/h 20.9 km/h 73 % 0 mm 0.0 W/m2 CLR
04:46 -14.4 °C -16.8 °C 34279.9 hPa NW 20.9 km/h 20.9 km/h 74 % 0 mm 0.0 W/m2 CLR
04:49 -14.4 °C -16.9 °C 34279.9 hPa NW 17.9 km/h 17.9 km/h 73 % 0 mm 0.0 W/m2 CLR
04:54 -14.7 °C -17.2 °C 34279.9 hPa WNW 23.8 km/h 23.8 km/h 73 % 0 mm 0.0 W/m2 CLR
04:55 -14.7 °C -17.2 °C 34279.9 hPa NW 23.8 km/h 23.8 km/h 73 % 0 mm 0.0 W/m2 CLR
04:58 -14.7 °C -17.2 °C 34279.9 hPa NW 20.9 km/h 20.9 km/h 73 % 0 mm 0.0 W/m2 CLR
05:02 -14.7 °C -17.2 °C 34279.9 hPa NW 23.8 km/h 23.8 km/h 73 % 0 mm 0.0 W/m2 CLR
05:07 -14.7 °C -17.2 °C 34279.9 hPa WNW 26.9 km/h 26.9 km/h 73 % 0 mm 0.0 W/m2 CLR
05:08 -14.7 °C -17.2 °C 34279.9 hPa NW 26.9 km/h 26.9 km/h 73 % 0 mm 0.0 W/m2 CLR
05:09 -14.7 °C -17.2 °C 34279.9 hPa NW 29.8 km/h 29.8 km/h 73 % 0 mm 0.0 W/m2 CLR
05:14 -14.7 °C -17.2 °C 34279.9 hPa WNW 23.8 km/h 23.8 km/h 73 % 0 mm 0.0 W/m2 CLR
05:16 -14.7 °C -17.2 °C 34279.9 hPa WNW 29.8 km/h 29.8 km/h 73 % 0 mm 0.0 W/m2 CLR
05:17 -14.7 °C -17.2 °C 34279.9 hPa WNW 26.9 km/h 26.9 km/h 73 % 0 mm 0.0 W/m2 CLR
05:22 -14.7 °C -17.3 °C 34269.7 hPa NW 26.9 km/h 26.9 km/h 72 % 0 mm 0.0 W/m2 CLR
05:24 -14.7 °C -17.3 °C 34269.7 hPa NW 20.9 km/h 20.9 km/h 72 % 0 mm 0.0 W/m2 CLR
05:27 -14.7 °C -17.3 °C 34279.9 hPa NW 26.9 km/h 26.9 km/h 72 % 0 mm 0.0 W/m2 CLR
05:31 -14.7 °C -17.3 °C 34269.7 hPa NW 26.9 km/h 26.9 km/h 72 % 0 mm 0.0 W/m2 CLR
05:34 -14.7 °C -17.3 °C 34269.7 hPa NW 32.8 km/h 32.8 km/h 72 % 0 mm 0.0 W/m2 CLR
05:37 -14.7 °C -17.2 °C 34269.7 hPa NW 17.9 km/h 17.9 km/h 73 % 0 mm 0.0 W/m2 CLR
05:40 -15 °C -17.4 °C 34269.7 hPa WNW 23.8 km/h 23.8 km/h 73 % 0 mm 0.0 W/m2 CLR
05:42 -15 °C -17.4 °C 34269.7 hPa NW 23.8 km/h 23.8 km/h 73 % 0 mm 0.0 W/m2 CLR
05:47 -15 °C -17.6 °C 34269.7 hPa NW 25.9 km/h 25.9 km/h 72 % 0 mm 0.0 W/m2 CLR
05:49 -15 °C -17.4 °C 34269.7 hPa NW 26.9 km/h 26.9 km/h 73 % 0 mm 0.0 W/m2 CLR
05:53 -15 °C -17.4 °C 34269.7 hPa NW 29.8 km/h 29.8 km/h 73 % 0 mm 0.0 W/m2 CLR
05:54 -15 °C -17.4 °C 34269.7 hPa NW 23.8 km/h 23.8 km/h 73 % 0 mm 0.0 W/m2 CLR
05:59 -14.7 °C -17.2 °C 34269.7 hPa NW 26.9 km/h 26.9 km/h 73 % 0 mm 0.0 W/m2 CLR
06:00 -14.7 °C -17.2 °C 34269.7 hPa NW 26.9 km/h 26.9 km/h 73 % 0 mm 0.0 W/m2 CLR
06:05 -14.7 °C -17.2 °C 34269.7 hPa NW 23.8 km/h 23.8 km/h 73 % 0 mm 0.0 W/m2 CLR
06:06 -14.7 °C -17.2 °C 34269.7 hPa NNW 23.8 km/h 23.8 km/h 73 % 0 mm 0.0 W/m2 CLR
06:11 -14.7 °C -17.2 °C 34269.7 hPa NW 23.8 km/h 23.8 km/h 73 % 0 mm 0.0 W/m2 CLR
06:12 -14.7 °C -17.2 °C 34269.7 hPa NW 26.9 km/h 26.9 km/h 73 % 0 mm 0.0 W/m2 CLR
06:13 -14.7 °C -17.2 °C 34269.7 hPa NW 31.1 km/h 31.1 km/h 73 % 0 mm 0.0 W/m2 CLR
06:18 -14.4 °C -17 °C 34269.7 hPa NW 26.9 km/h 26.9 km/h 72 % 0 mm 0.0 W/m2 CLR
06:23 -14.4 °C -16.9 °C 34269.7 hPa NW 29.8 km/h 29.8 km/h 73 % 0 mm 0.0 W/m2 CLR
06:25 -14.4 °C -16.9 °C 34269.7 hPa NW 32.8 km/h 32.8 km/h 73 % 0 mm 0.0 W/m2 CLR
06:28 -14.4 °C -16.9 °C 34269.7 hPa NW 29.8 km/h 29.8 km/h 73 % 0 mm 0.0 W/m2 CLR
06:31 -14.4 °C -16.9 °C 34269.7 hPa NW 26.9 km/h 26.9 km/h 73 % 0 mm 0.0 W/m2 CLR
06:33 -14.4 °C -16.9 °C 34269.7 hPa NNW 29.8 km/h 29.8 km/h 73 % 0 mm 0.0 W/m2 CLR
06:38 -14.4 °C -16.8 °C 34269.7 hPa NW 29.8 km/h 29.8 km/h 74 % 0 mm 0.0 W/m2 CLR
06:39 -14.7 °C -17.1 °C 34269.7 hPa NW 29.8 km/h 29.8 km/h 74 % 0 mm 0.0 W/m2 CLR
06:41 -14.7 °C -17.1 °C 34269.7 hPa NW 26.9 km/h 26.9 km/h 74 % 0 mm 0.0 W/m2 CLR
06:44 -14.7 °C -17.1 °C 34269.7 hPa NNW 26.9 km/h 26.9 km/h 74 % 0 mm 0.0 W/m2 CLR
06:47 -14.7 °C -17.1 °C 34269.7 hPa NNW 35.7 km/h 35.7 km/h 74 % 0 mm 0.0 W/m2 CLR
06:50 -14.7 °C -17.1 °C 34269.7 hPa NW 29.8 km/h 29.8 km/h 74 % 0 mm 0.0 W/m2 CLR
06:55 -14.7 °C -17.1 °C 34269.7 hPa NNW 20.9 km/h 20.9 km/h 74 % 0 mm 0.0 W/m2 CLR
06:57 -14.7 °C -17 °C 34269.7 hPa NNW 29.8 km/h 29.8 km/h 75 % 0 mm 0.0 W/m2 CLR
06:58 -14.7 °C -17 °C 34269.7 hPa NW 29.8 km/h 29.8 km/h 75 % 0 mm 0.0 W/m2 CLR
07:03 -14.7 °C -17 °C 34269.7 hPa NW 20.9 km/h 20.9 km/h 75 % 0 mm 0.0 W/m2 CLR
07:04 -14.7 °C -17 °C 34269.7 hPa NNW 26.9 km/h 26.9 km/h 75 % 0 mm 0.0 W/m2 CLR
07:08 -14.7 °C -17 °C 34269.7 hPa NNW 23.8 km/h 23.8 km/h 75 % 0 mm 0.0 W/m2 CLR
07:12 -14.7 °C -17 °C 34269.7 hPa NNW 29.8 km/h 29.8 km/h 75 % 0 mm 0.0 W/m2 CLR
07:13 -14.7 °C -17 °C 34269.7 hPa NNW 26.9 km/h 26.9 km/h 75 % 0 mm 0.0 W/m2 CLR
07:18 -14.7 °C -17 °C 34279.9 hPa NNW 29.8 km/h 29.8 km/h 75 % 0 mm 0.0 W/m2 CLR
07:19 -14.7 °C -17 °C 34279.9 hPa NNW 29.8 km/h 29.8 km/h 75 % 0 mm 0.0 W/m2 CLR
07:21 -14.7 °C -17 °C 34279.9 hPa NW 29.8 km/h 29.8 km/h 75 % 0 mm 0.0 W/m2 CLR
07:26 -14.7 °C -17 °C 34279.9 hPa NW 23.8 km/h 23.8 km/h 75 % 0 mm 0.0 W/m2 CLR
07:27 -14.7 °C -17 °C 34279.9 hPa NNW 33.6 km/h 33.6 km/h 75 % 0 mm 0.0 W/m2 CLR
07:32 -14.7 °C -17 °C 34279.9 hPa NW 29.8 km/h 29.8 km/h 75 % 0 mm 0.0 W/m2 CLR
07:37 -14.7 °C -17 °C 34279.9 hPa NW 29.8 km/h 29.8 km/h 75 % 0 mm 0.0 W/m2 CLR
07:43 -14.7 °C -17.1 °C 34279.9 hPa NNW 23.8 km/h 23.8 km/h 74 % 0 mm 0.0 W/m2 CLR
07:46 -14.7 °C -17 °C 34279.9 hPa NW 20.9 km/h 20.9 km/h 75 % 0 mm 0.0 W/m2 CLR
07:49 -14.7 °C -17.1 °C 34279.9 hPa NW 18.2 km/h 18.8 km/h 74 % 0 mm 0.0 W/m2 CLR
07:52 -14.7 °C -17 °C 34293.4 hPa NW 23.8 km/h 23.8 km/h 75 % 0 mm 0.0 W/m2 CLR
07:55 -15 °C -17.3 °C 34293.4 hPa NW 18.2 km/h 18.2 km/h 75 % 0 mm 0.0 W/m2 CLR
07:56 -15 °C -17.3 °C 34293.4 hPa NW 20.9 km/h 20.9 km/h 75 % 0 mm 0.0 W/m2 CLR
08:01 -15 °C -17.3 °C 34293.4 hPa NW 20.9 km/h 20.9 km/h 75 % 0 mm 0.0 W/m2 CLR
08:02 -15 °C -17.3 °C 34293.4 hPa NW 20.9 km/h 20.9 km/h 75 % 0 mm 0.0 W/m2 CLR
08:04 -15 °C -17.3 °C 34293.4 hPa NW 15 km/h 15 km/h 75 % 0 mm 0.0 W/m2 CLR
08:09 -15 °C -17.3 °C 34293.4 hPa NW 17.9 km/h 17.9 km/h 75 % 0 mm 0.0 W/m2 CLR
08:10 -15 °C -17.3 °C 34293.4 hPa NW 17.9 km/h 17.9 km/h 75 % 0 mm 0.0 W/m2 CLR
08:15 -14.7 °C -17 °C 34293.4 hPa WNW 20.9 km/h 20.9 km/h 75 % 0 mm 0.0 W/m2 OVC
08:16 -14.7 °C -17 °C 34293.4 hPa NW 23.8 km/h 23.8 km/h 75 % 0 mm 0.0 W/m2 OVC
08:21 -14.7 °C -17 °C 34293.4 hPa NW 23.8 km/h 23.8 km/h 75 % 0 mm 5.0 W/m2 OVC
08:23 -14.7 °C -17 °C 34293.4 hPa WNW 25.9 km/h 25.9 km/h 75 % 0 mm 5.0 W/m2 OVC
08:28 -14.7 °C -17 °C 34279.9 hPa NW 29.8 km/h 29.8 km/h 75 % 0 mm 5.0 W/m2 OVC
08:29 -14.7 °C -17 °C 34293.4 hPa NW 29.8 km/h 29.8 km/h 75 % 0 mm 7.0 W/m2 OVC
08:32 -14.7 °C -17.1 °C 34279.9 hPa NW 26.9 km/h 26.9 km/h 74 % 0 mm 9.0 W/m2 BKN
08:35 -14.4 °C -16.8 °C 34293.4 hPa WNW 23.8 km/h 23.8 km/h 74 % 0 mm 12.0 W/m2 BKN
08:40 -14.4 °C -16.7 °C 34279.9 hPa NW 23.8 km/h 23.8 km/h 75 % 0 mm 18.0 W/m2 BKN
08:41 -14.4 °C -16.7 °C 34279.9 hPa WNW 23.8 km/h 23.8 km/h 75 % 0 mm 19.0 W/m2 BKN
08:43 -14.4 °C -16.7 °C 34279.9 hPa NW 26.9 km/h 26.9 km/h 75 % 0 mm 21.0 W/m2 BKN
08:46 -14.4 °C -16.8 °C 34293.4 hPa NW 29.8 km/h 29.8 km/h 74 % 0 mm 23.0 W/m2 BKN
08:51 -14.4 °C -16.8 °C 34293.4 hPa NW 15 km/h 15 km/h 74 % 0 mm 30.0 W/m2 BKN
08:52 -14.4 °C -16.8 °C 34293.4 hPa NW 23.3 km/h 23.3 km/h 74 % 0 mm 32.0 W/m2 BKN
08:53 -14.4 °C -16.8 °C 34293.4 hPa NW 17.9 km/h 17.9 km/h 74 % 0 mm 32.0 W/m2 BKN
08:58 -14.4 °C -16.8 °C 34293.4 hPa Calm     74 % 0 mm 37.0 W/m2 BKN
09:03 -14.4 °C -16.8 °C 34293.4 hPa NW 23.8 km/h 23.8 km/h 74 % 0 mm 42.0 W/m2 BKN
09:04 -14.4 °C -16.8 °C 34293.4 hPa NW 17.9 km/h 17.9 km/h 74 % 0 mm 40.0 W/m2 BKN
09:09 -14.4 °C -16.8 °C 34293.4 hPa NNW 20.8 km/h 20.8 km/h 74 % 0 mm 39.0 W/m2 BKN
09:10 -14.4 °C -16.8 °C 34303.6 hPa NW 11.9 km/h 11.9 km/h 74 % 0 mm 39.0 W/m2 BKN
09:15 -14.4 °C -16.8 °C 34293.4 hPa NW 9 km/h 9 km/h 74 % 0 mm 44.0 W/m2 BKN
09:18 -14.4 °C -16.9 °C 34293.4 hPa NW 11.9 km/h 11.9 km/h 73 % 0 mm 49.0 W/m2 SCT
09:22 -14.4 °C -16.9 °C 34293.4 hPa Calm     73 % 0 mm 76.0 W/m2 FEW
09:27 -14.4 °C -16.9 °C 34293.4 hPa Calm     73 % 0 mm 72.0 W/m2 SCT
09:29 -14.1 °C -16.6 °C 34293.4 hPa Calm     73 % 0 mm 63.0 W/m2 FEW
09:32 -14.1 °C -16.6 °C 34293.4 hPa Calm     73 % 0 mm 67.0 W/m2 FEW
09:37 -14.1 °C -16.6 °C 34293.4 hPa Calm     73 % 0 mm 69.0 W/m2 FEW
09:42 -14.1 °C -16.6 °C 34303.6 hPa Calm     73 % 0 mm 90.0 W/m2 FEW
09:43 -14.1 °C -16.6 °C 34303.6 hPa Calm     73 % 0 mm 90.0 W/m2 FEW
09:48 -14.1 °C -16.6 °C 34303.6 hPa Calm     73 % 0 mm 111.0 W/m2 CLR
09:49 -13.8 °C -16.3 °C 34303.6 hPa Calm     73 % 0 mm 113.0 W/m2 CLR
09:54 -13.8 °C -16.3 °C 34303.6 hPa Calm     73 % 0 mm 127.0 W/m2 CLR
09:55 -13.8 °C -16.3 °C 34303.6 hPa Calm     73 % 0 mm 127.0 W/m2 CLR
10:00 -13.4 °C -16 °C 34293.4 hPa Calm     73 % 0 mm 132.0 W/m2 CLR
10:04 -13.4 °C -16 °C 34293.4 hPa Calm     73 % 0 mm 127.0 W/m2 CLR
10:05 -13.4 °C -16 °C 34293.4 hPa Calm     73 % 0 mm 123.0 W/m2 CLR
10:09 -13.4 °C -16.1 °C 34293.4 hPa NW 10.3 km/h 10.3 km/h 72 % 0 mm 134.0 W/m2 CLR
10:14 -13.4 °C -16.1 °C 34303.6 hPa NNW 20.9 km/h 20.9 km/h 72 % 0 mm 144.0 W/m2 CLR
10:16 -13.4 °C -16.1 °C 34303.6 hPa North 20.9 km/h 20.9 km/h 72 % 0 mm 167.0 W/m2 CLR
10:20 -13.2 °C -15.8 °C 34293.4 hPa North 29.8 km/h 29.8 km/h 72 % 0 mm 146.0 W/m2 CLR
10:22 -13.2 °C -15.9 °C 34303.6 hPa North 29.8 km/h 29.8 km/h 71 % 0 mm 139.0 W/m2 CLR
10:23 -13.2 °C -15.9 °C 34303.6 hPa North 23.3 km/h 23.3 km/h 71 % 0 mm 130.0 W/m2 CLR
10:27 -13.2 °C -15.9 °C 34303.6 hPa North 32.8 km/h 32.8 km/h 71 % 0 mm 128.0 W/m2 CLR
10:28 -13.2 °C -15.9 °C 34303.6 hPa NNW 26.9 km/h 26.9 km/h 71 % 0 mm 142.0 W/m2 CLR
10:32 -13.2 °C -15.9 °C 34303.6 hPa NW 29.8 km/h 29.8 km/h 71 % 0 mm 162.0 W/m2 CLR
10:37 -13.2 °C -15.9 °C 34303.6 hPa NNW 29.8 km/h 29.8 km/h 71 % 0 mm 181.0 W/m2 CLR
10:39 -13.2 °C -15.9 °C 34303.6 hPa NNW 29.8 km/h 29.8 km/h 71 % 0 mm 183.0 W/m2 CLR
10:44 -13.2 °C -15.9 °C 34303.6 hPa North 28.5 km/h 28.5 km/h 71 % 0 mm 155.0 W/m2 CLR
10:49 -12.8 °C -15.6 °C 34303.6 hPa NNW 29.8 km/h 29.8 km/h 71 % 0 mm 118.0 W/m2 CLR
10:55 -13.2 °C -16 °C 34313.7 hPa North 29.8 km/h 29.8 km/h 70 % 0 mm 91.0 W/m2 CLR
11:00 -13.2 °C -15.9 °C 34303.6 hPa North 29.8 km/h 29.8 km/h 71 % 0 mm 95.0 W/m2 CLR
11:01 -13.2 °C -15.9 °C 34303.6 hPa North 29.8 km/h 29.8 km/h 71 % 0 mm 90.0 W/m2 CLR
11:06 -13.2 °C -16 °C 34313.7 hPa NNW 29.8 km/h 29.8 km/h 70 % 0 mm 86.0 W/m2 CLR
11:11 -13.2 °C -15.9 °C 34313.7 hPa North 26.9 km/h 26.9 km/h 71 % 0 mm 69.0 W/m2 FEW
11:15 -13.2 °C -15.9 °C 34303.6 hPa North 23.8 km/h 23.8 km/h 71 % 0 mm 88.0 W/m2 FEW
11:18 -13.2 °C -15.9 °C 34303.6 hPa North 26.9 km/h 26.9 km/h 71 % 0 mm 104.0 W/m2 FEW
11:20 -13.2 °C -15.9 °C 34303.6 hPa North 23.8 km/h 23.8 km/h 71 % 0 mm 95.0 W/m2 FEW
11:25 -13.2 °C -15.9 °C 34303.6 hPa North 17.9 km/h 17.9 km/h 71 % 0 mm 114.0 W/m2 CLR
11:26 -13.2 °C -15.9 °C 34303.6 hPa NNW 17.9 km/h 17.9 km/h 71 % 0 mm 114.0 W/m2 CLR
11:31 -13.2 °C -15.9 °C 34293.4 hPa Calm     71 % 0 mm 130.0 W/m2 CLR
11:33 -13.2 °C -15.9 °C 34293.4 hPa Calm     71 % 0 mm 139.0 W/m2 CLR
11:34 -13.2 °C -15.9 °C 34293.4 hPa Calm     71 % 0 mm 144.0 W/m2 CLR
11:39 -12.8 °C -15.7 °C 34293.4 hPa Calm     70 % 0 mm 181.0 W/m2 CLR
11:40 -12.8 °C -15.7 °C 34293.4 hPa Calm     70 % 0 mm 181.0 W/m2 CLR
11:45 -12.8 °C -15.7 °C 34293.4 hPa Calm     70 % 0 mm 146.0 W/m2 CLR
11:49 -12.8 °C -15.7 °C 34293.4 hPa Calm     70 % 0 mm 105.0 W/m2 CLR
11:52 -12.8 °C -15.7 °C 34293.4 hPa Calm     70 % 0 mm 91.0 W/m2 CLR
11:57 -12.8 °C -15.8 °C 34293.4 hPa Calm     69 % 0 mm 102.0 W/m2 CLR
12:00 -12.8 °C -15.8 °C 34293.4 hPa Calm     69 % 0 mm 118.0 W/m2 CLR
12:05 -12.8 °C -15.8 °C 34293.4 hPa Calm     69 % 0 mm 109.0 W/m2 CLR
12:07 -12.8 °C -15.8 °C 34293.4 hPa Calm     69 % 0 mm 116.0 W/m2 CLR
12:11 -12.8 °C -15.8 °C 34293.4 hPa Calm     69 % 0 mm 139.0 W/m2 CLR
12:12 -12.8 °C -15.8 °C 34293.4 hPa Calm     69 % 0 mm 146.0 W/m2 CLR
12:16 -12.6 °C -15.5 °C 34293.4 hPa Calm     69 % 0 mm 190.0 W/m2 CLR
12:17 -12.6 °C -15.5 °C 34293.4 hPa Calm     69 % 0 mm 200.0 W/m2 CLR
12:22 -12.6 °C -15.4 °C 34279.9 hPa Calm     70 % 0 mm 216.0 W/m2 CLR
12:24 -12.6 °C -15.7 °C 34279.9 hPa Calm     68 % 0 mm 221.0 W/m2 CLR
12:29 -12.2 °C -15.4 °C 34279.9 hPa Calm     68 % 0 mm 248.0 W/m2 CLR
12:30 -12.2 °C -15.4 °C 34279.9 hPa Calm     68 % 0 mm 248.0 W/m2 CLR
12:31 -12.2 °C -15.2 °C 34279.9 hPa Calm     69 % 0 mm 258.0 W/m2 CLR
12:36 -12.2 °C -15.2 °C 34269.7 hPa Calm     69 % 0 mm 248.0 W/m2 CLR
12:38 -12.2 °C -15.4 °C 34269.7 hPa Calm     68 % 0 mm 225.0 W/m2 CLR
12:43 -12.2 °C -15.2 °C 34269.7 hPa Calm     69 % 0 mm 172.0 W/m2 CLR
12:48 -12.2 °C -15.1 °C 34269.7 hPa Calm     70 % 0 mm 211.0 W/m2 CLR
12:49 -12.2 °C -15.1 °C 34269.7 hPa Calm     70 % 0 mm 211.0 W/m2 CLR
12:50 -12.2 °C -15.1 °C 34269.7 hPa Calm     70 % 0 mm 178.0 W/m2 CLR
12:54 -12.2 °C -15.1 °C 34256.2 hPa Calm     70 % 0 mm 160.0 W/m2 CLR
12:57 -12.2 °C -15 °C 34256.2 hPa Calm     71 % 0 mm 188.0 W/m2 CLR
13:01 -12.2 °C -14.9 °C 34256.2 hPa Calm     72 % 0 mm 237.0 W/m2 CLR
13:06 -12.2 °C -14.9 °C 34256.2 hPa Calm     72 % 0 mm 158.0 W/m2 CLR
13:07 -12.2 °C -14.9 °C 34256.2 hPa Calm     72 % 0 mm 116.0 W/m2 CLR
13:08 -12.2 °C -14.9 °C 34256.2 hPa Calm     72 % 0 mm 95.0 W/m2 CLR
13:13 -12.2 °C -14.8 °C 34256.2 hPa Calm     73 % 0 mm 121.0 W/m2 CLR
13:16 -12.2 °C -14.8 °C 34256.2 hPa Calm     73 % 0 mm 121.0 W/m2 CLR
13:19 -12.2 °C -14.8 °C 34256.2 hPa Calm     73 % 0 mm 132.0 W/m2 CLR
13:25 -12.2 °C -14.8 °C 34256.2 hPa Calm     73 % 0 mm 111.0 W/m2 CLR
13:30 -12.2 °C -14.7 °C 34246 hPa Calm     74 % 0 mm 137.0 W/m2 CLR
13:32 -12.2 °C -14.7 °C 34246 hPa Calm     74 % 0 mm 158.0 W/m2 CLR
13:33 -12.2 °C -14.7 °C 34246 hPa Calm     74 % 0 mm 158.0 W/m2 CLR
13:38 -12.2 °C -14.8 °C 34235.8 hPa Calm     73 % 0 mm 193.0 W/m2 CLR
13:39 -12.2 °C -14.8 °C 34235.8 hPa Calm     73 % 0 mm 211.0 W/m2 CLR
13:45 -11.9 °C -14.6 °C 34235.8 hPa Calm     72 % 0 mm 153.0 W/m2 CLR
13:51 -11.9 °C -14.6 °C 34235.8 hPa Calm     72 % 0 mm 141.0 W/m2 CLR
13:52 -11.9 °C -14.6 °C 34235.8 hPa Calm     72 % 0 mm 146.0 W/m2 CLR
13:57 -11.9 °C -14.6 °C 34235.8 hPa Calm     72 % 0 mm 195.0 W/m2 CLR
14:02 -11.9 °C -14.6 °C 34222.3 hPa Calm     72 % 0 mm 181.0 W/m2 CLR
14:03 -11.9 °C -14.6 °C 34235.8 hPa Calm     72 % 0 mm 181.0 W/m2 CLR
14:08 -11.6 °C -14.3 °C 34235.8 hPa Calm     72 % 0 mm 190.0 W/m2 CLR
14:09 -11.6 °C -14.3 °C 34235.8 hPa NNW 3.1 km/h 3.1 km/h 72 % 0 mm 160.0 W/m2 CLR
14:14 -11.6 °C -14.4 °C 34235.8 hPa Calm     71 % 0 mm 172.0 W/m2 CLR
14:15 -11.6 °C -14.4 °C 34235.8 hPa NW 6 km/h 6 km/h 71 % 0 mm 192.0 W/m2 CLR
14:20 -11.6 °C -14.4 °C 34235.8 hPa NNW 7.7 km/h 7.7 km/h 71 % 0 mm 167.0 W/m2 CLR
14:25 -11.6 °C -14.4 °C 34235.8 hPa Calm     71 % 0 mm 146.0 W/m2 CLR
14:26 -11.6 °C -14.6 °C 34235.8 hPa Calm     70 % 0 mm 148.0 W/m2 CLR
14:31 -11.6 °C -14.6 °C 34235.8 hPa NW 3.1 km/h   70 % 0 mm 107.0 W/m2 CLR
14:32 -11.6 °C -14.4 °C 34235.8 hPa Calm     71 % 0 mm 116.0 W/m2 CLR
14:34 -11.6 °C -14.4 °C 34222.3 hPa Calm     71 % 0 mm 111.0 W/m2 CLR
14:37 -11.6 °C -14.4 °C 34222.3 hPa Calm     71 % 0 mm 91.0 W/m2 CLR
14:41 -11.6 °C -14.6 °C 34222.3 hPa WNW 7.7 km/h 7.7 km/h 70 % 0 mm 162.0 W/m2 CLR
14:43 -11.6 °C -14.6 °C 34222.3 hPa NW 9 km/h 9 km/h 70 % 0 mm 151.0 W/m2 CLR
14:48 -11.6 °C -14.4 °C 34222.3 hPa Calm     71 % 0 mm 105.0 W/m2 CLR
14:53 -11.6 °C -14.4 °C 34222.3 hPa Calm     71 % 0 mm 128.0 W/m2 CLR
14:55 -11.6 °C -14.4 °C 34222.3 hPa Calm     71 % 0 mm 169.0 W/m2 CLR
14:59 -11.6 °C -14.4 °C 34212.1 hPa Calm     71 % 0 mm 137.0 W/m2 CLR
15:04 -11.6 °C -14.4 °C 34222.3 hPa NNW 2.6 km/h   71 % 0 mm 373.0 W/m2 CLR
15:08 -11.3 °C -14.2 °C 34222.3 hPa North 9 km/h 9 km/h 70 % 0 mm 441.0 W/m2 CLR
15:14 -11 °C -14.1 °C 34222.3 hPa NNW 9 km/h 9 km/h 69 % 0 mm 213.0 W/m2 CLR
15:19 -10.7 °C -14 °C 34222.3 hPa NNW 29.8 km/h 29.8 km/h 67 % 0 mm 190.0 W/m2 CLR
15:21 -10.7 °C -13.8 °C 34222.3 hPa NNW 17.9 km/h 17.9 km/h 69 % 0 mm 274.0 W/m2 CLR
15:26 -11 °C -14.3 °C 34222.3 hPa North 15.6 km/h 15.6 km/h 67 % 0 mm 160.0 W/m2 CLR
15:27 -11 °C -14.3 °C 34222.3 hPa NNE 20.8 km/h 20.8 km/h 67 % 0 mm 160.0 W/m2 CLR
15:28 -11 °C -14.3 °C 34222.3 hPa NNE 29.8 km/h 29.8 km/h 67 % 0 mm 169.0 W/m2 CLR
15:33 -11.3 °C -14.5 °C 34235.8 hPa North 20.8 km/h 20.8 km/h 68 % 0 mm 127.0 W/m2 CLR
15:38 -11.6 °C -14.9 °C 34235.8 hPa ENE 23.8 km/h 23.8 km/h 67 % 0 mm 130.0 W/m2 CLR
15:39 -11.6 °C -14.9 °C 34235.8 hPa NE 23.8 km/h 23.8 km/h 67 % 0 mm 125.0 W/m2 CLR
15:40 -11.6 °C -14.9 °C 34235.8 hPa NE 28.5 km/h 28.5 km/h 67 % 0 mm 125.0 W/m2 CLR
15:45 -11.6 °C -14.9 °C 34235.8 hPa NE 26.9 km/h 26.9 km/h 67 % 0 mm 107.0 W/m2 CLR
15:46 -11.6 °C -14.9 °C 34235.8 hPa NE 31.1 km/h 31.1 km/h 67 % 0 mm 58.0 W/m2 CLR
15:50 -11.6 °C -14.8 °C 34246 hPa NE 32.8 km/h 32.8 km/h 68 % 0 mm 146.0 W/m2 CLR
15:54 -11.9 °C -15.1 °C 34246 hPa NE 26.9 km/h 26.9 km/h 68 % 0 mm 223.0 W/m2 CLR
15:55 -11.9 °C -15.1 °C 34246 hPa NE 25.9 km/h 25.9 km/h 68 % 0 mm 39.0 W/m2 CLR
15:59 -11.9 °C -15.1 °C 34246 hPa NNE 20.9 km/h 20.9 km/h 68 % 0 mm 128.0 W/m2 FEW
16:00 -11.9 °C -14.9 °C 34246 hPa NNE 20.9 km/h 20.9 km/h 69 % 0 mm 128.0 W/m2 FEW
16:02 -11.9 °C -14.9 °C 34246 hPa NNE 20.9 km/h   69 % 0 mm 186.0 W/m2 FEW
16:07 -12.2 °C -15.2 °C 34246 hPa Calm     69 % 0 mm 84.0 W/m2 FEW
16:08 -12.2 °C -15.2 °C 34246 hPa Calm     69 % 0 mm 84.0 W/m2 FEW
16:09 -12.2 °C -15.2 °C 34246 hPa Calm     69 % 0 mm 39.0 W/m2 FEW
16:13 -12.2 °C -15.1 °C 34246 hPa NNE 18.2 km/h 18.2 km/h 70 % 0 mm 25.0 W/m2 SCT
16:16 -12.2 °C -15.1 °C 34256.2 hPa North 23.3 km/h 23.3 km/h 70 % 0 mm 32.0 W/m2 BKN
16:20 -12.6 °C -15.3 °C 34256.2 hPa NNW 26.9 km/h 26.9 km/h 71 % 0 mm 28.0 W/m2 BKN
16:23 -12.6 °C -15.3 °C 34269.7 hPa North 20.9 km/h 20.9 km/h 71 % 0 mm 30.0 W/m2 BKN
16:25 -12.6 °C -15.2 °C 34269.7 hPa NNW 26.9 km/h 26.9 km/h 72 % 0 mm 37.0 W/m2 BKN
16:30 -12.6 °C -15.2 °C 34269.7 hPa NNW 11.9 km/h 11.9 km/h 72 % 0 mm 40.0 W/m2 BKN
16:31 -12.6 °C -15.2 °C 34269.7 hPa NNW 15 km/h 15 km/h 72 % 0 mm 40.0 W/m2 BKN
16:33 -12.6 °C -15.1 °C 34269.7 hPa Calm     73 % 0 mm 39.0 W/m2 BKN
16:38 -12.6 °C -15.1 °C 34269.7 hPa Calm     73 % 0 mm 37.0 W/m2 BKN
16:43 -12.8 °C -15.4 °C 34269.7 hPa Calm     73 % 0 mm 26.0 W/m2 BKN
16:44 -12.8 °C -15.4 °C 34269.7 hPa NW 3.1 km/h 3.1 km/h 73 % 0 mm 26.0 W/m2 BKN
16:49 -12.8 °C -15.3 °C 34269.7 hPa Calm   2.6 km/h 74 % 0 mm 49.0 W/m2 SCT
16:54 -12.8 °C -15.3 °C 34269.7 hPa NW 12.9 km/h 12.9 km/h 74 % 0 mm 32.0 W/m2 BKN
16:55 -12.8 °C -15.3 °C 34269.7 hPa NNW 12.9 km/h 12.9 km/h 74 % 0 mm 32.0 W/m2 BKN
16:57 -12.8 °C -15.3 °C 34269.7 hPa NW 20.8 km/h 20.8 km/h 74 % 0 mm 37.0 W/m2 BKN
17:01 -12.8 °C -15.3 °C 34269.7 hPa NW 20.9 km/h 20.9 km/h 74 % 0 mm 30.0 W/m2 BKN
17:02 -12.8 °C -15.3 °C 34269.7 hPa WNW 12.9 km/h 12.9 km/h 74 % 0 mm 21.0 W/m2 BKN
17:07 -12.8 °C -15.3 °C 34269.7 hPa Calm     74 % 0 mm 16.0 W/m2 BKN
17:08 -12.8 °C -15.3 °C 34269.7 hPa Calm     74 % 0 mm 18.0 W/m2 BKN
17:12 -12.8 °C -15.3 °C 34269.7 hPa Calm     74 % 0 mm 16.0 W/m2 BKN
17:14 -12.8 °C -15.3 °C 34269.7 hPa Calm     74 % 0 mm 14.0 W/m2 BKN
17:19 -12.8 °C -15.2 °C 34269.7 hPa WNW 9 km/h 9 km/h 75 % 0 mm 11.0 W/m2 BKN
17:21 -12.8 °C -15.3 °C 34269.7 hPa WNW 15 km/h 15 km/h 74 % 0 mm 11.0 W/m2 BKN
17:26 -12.8 °C -15.2 °C 34279.9 hPa WNW 17.9 km/h 17.9 km/h 75 % 0 mm 11.0 W/m2 BKN
17:27 -12.8 °C -15.2 °C 34279.9 hPa NW 12.9 km/h 12.9 km/h 75 % 0 mm 7.0 W/m2 BKN
17:32 -12.8 °C -15.2 °C 34279.9 hPa NW 26.9 km/h 26.9 km/h 75 % 0 mm 5.0 W/m2 OVC
17:37 -12.8 °C -15.2 °C 34279.9 hPa WNW 23.8 km/h 23.8 km/h 75 % 0 mm 0.0 W/m2 OVC
17:38 -12.8 °C -15.2 °C 34293.4 hPa WNW 29.8 km/h 29.8 km/h 75 % 0 mm 0.0 W/m2 OVC
17:43 -12.8 °C -15.2 °C 34293.4 hPa WNW 26.9 km/h 26.9 km/h 75 % 0 mm 0.0 W/m2 OVC
17:44 -12.8 °C -15.2 °C 34293.4 hPa WNW 26.9 km/h 26.9 km/h 75 % 0 mm 0.0 W/m2 OVC
17:45 -12.8 °C -15.2 °C 34293.4 hPa NW 26.9 km/h 26.9 km/h 75 % 0 mm 0.0 W/m2 OVC
17:50 -12.8 °C -15.2 °C 34303.6 hPa NW 26.9 km/h 26.9 km/h 75 % 0 mm 0.0 W/m2 CLR
17:55 -12.8 °C -15.2 °C 34303.6 hPa WNW 26.9 km/h 26.9 km/h 75 % 0 mm 0.0 W/m2 CLR
18:00 -12.8 °C -15.2 °C 34303.6 hPa NW 29.8 km/h 29.8 km/h 75 % 0 mm 0.0 W/m2 CLR
18:01 -12.8 °C -15.2 °C 34303.6 hPa WNW 28.5 km/h 28.5 km/h 75 % 0 mm 0.0 W/m2 CLR
18:06 -12.8 °C -15.2 °C 34303.6 hPa NW 26.9 km/h 26.9 km/h 75 % 0 mm 0.0 W/m2 CLR
18:07 -12.8 °C -15.2 °C 34303.6 hPa NW 26.9 km/h 26.9 km/h 75 % 0 mm 0.0 W/m2 CLR
18:12 -12.8 °C -15.2 °C 34303.6 hPa WNW 29.8 km/h 29.8 km/h 75 % 0 mm 0.0 W/m2 CLR
18:14 -12.8 °C -15.3 °C 34303.6 hPa NW 33.6 km/h 33.6 km/h 74 % 0 mm 0.0 W/m2 CLR
18:19 -12.8 °C -15.3 °C 34313.7 hPa NW 29.8 km/h 29.8 km/h 74 % 0 mm 0.0 W/m2 CLR
18:20 -12.8 °C -15.3 °C 34313.7 hPa NNW 26.9 km/h 26.9 km/h 74 % 0 mm 0.0 W/m2 CLR
18:21 -12.8 °C -15.3 °C 34313.7 hPa NW 36.2 km/h 36.2 km/h 74 % 0 mm 0.0 W/m2 CLR
18:26 -12.8 °C -15.3 °C 34313.7 hPa NW 26.9 km/h 26.9 km/h 74 % 0 mm 0.0 W/m2 CLR
18:31 -12.8 °C -15.3 °C 34313.7 hPa NNW 20.9 km/h 20.9 km/h 74 % 0 mm 0.0 W/m2 CLR
18:33 -12.8 °C -15.2 °C 34327.3 hPa NW 31.1 km/h 31.1 km/h 75 % 0 mm 0.0 W/m2 CLR
18:35 -12.8 °C -15.2 °C 34327.3 hPa NNW 35.7 km/h 35.7 km/h 75 % 0 mm 0.0 W/m2 CLR
18:38 -12.8 °C -15.2 °C 34327.3 hPa North 28.5 km/h 28.5 km/h 75 % 0 mm 0.0 W/m2 CLR
18:43 -12.8 °C -15.2 °C 34327.3 hPa NW 26.9 km/h 26.9 km/h 75 % 0 mm 0.0 W/m2 CLR
18:44 -12.8 °C -15.2 °C 34327.3 hPa NW 29.8 km/h 29.8 km/h 75 % 0 mm 0.0 W/m2 CLR
18:45 -12.8 °C -15.2 °C 34327.3 hPa NW 28.5 km/h 28.5 km/h 75 % 0 mm 0.0 W/m2 CLR
18:49 -12.8 °C -15.1 °C 34337.4 hPa NW 29.8 km/h 29.8 km/h 76 % 0 mm 0.0 W/m2 CLR
18:52 -12.8 °C -15.2 °C 34327.3 hPa NW 29.8 km/h 29.8 km/h 75 % 0 mm 0.0 W/m2 CLR
18:56 -12.8 °C -15.1 °C 34327.3 hPa NW 29.8 km/h 29.8 km/h 76 % 0 mm 0.0 W/m2 CLR
19:01 -12.8 °C -15.1 °C 34337.4 hPa NW 26.9 km/h 26.9 km/h 76 % 0 mm 0.0 W/m2 CLR
19:04 -13.2 °C -15.4 °C 34337.4 hPa NW 20.9 km/h 21.6 km/h 76 % 0 mm 0.0 W/m2 CLR
19:09 -13.2 °C -15.4 °C 34347.6 hPa NW 18.2 km/h 18.2 km/h 76 % 0 mm 0.0 W/m2 CLR
19:11 -13.2 °C -15.4 °C 34347.6 hPa NW 32.8 km/h 32.8 km/h 76 % 0 mm 0.0 W/m2 CLR
19:16 -13.2 °C -15.2 °C 34347.6 hPa WNW 23.8 km/h 23.8 km/h 77 % 0 mm 0.0 W/m2 CLR
19:21 -13.2 °C -15.2 °C 34347.6 hPa NW 17.9 km/h 17.9 km/h 77 % 0 mm 0.0 W/m2 CLR
19:22 -13.2 °C -15.2 °C 34347.6 hPa WNW 20.9 km/h 20.9 km/h 77 % 0 mm 0.0 W/m2 CLR
19:27 -13.2 °C -15.2 °C 34347.6 hPa WNW 18.2 km/h 18.2 km/h 77 % 0 mm 0.0 W/m2 CLR
19:32 -13.4 °C -15.6 °C 34347.6 hPa NW 20.9 km/h 20.9 km/h 77 % 0 mm 0.0 W/m2 CLR
19:34 -13.4 °C -15.6 °C 34347.6 hPa WNW 23.3 km/h 23.3 km/h 77 % 0 mm 0.0 W/m2 CLR
19:37 -13.4 °C -15.4 °C 34347.6 hPa NW 23.8 km/h 23.8 km/h 78 % 0 mm 0.0 W/m2 CLR
19:42 -13.4 °C -15.4 °C 34361.1 hPa NW 23.8 km/h 23.8 km/h 78 % 0 mm 0.0 W/m2 CLR
19:45 -13.4 °C -15.4 °C 34361.1 hPa NW 23.8 km/h 23.8 km/h 78 % 0 mm 0.0 W/m2 CLR
19:50 -13.8 °C -15.7 °C 34361.1 hPa NW 23.8 km/h 23.8 km/h 78 % 0 mm 0.0 W/m2 CLR
19:51 -13.8 °C -15.7 °C 34361.1 hPa NW 23.8 km/h 23.8 km/h 78 % 0 mm 0.0 W/m2 CLR
19:56 -13.8 °C -15.7 °C 34361.1 hPa NW 20.9 km/h 20.9 km/h 78 % 0 mm 0.0 W/m2 CLR
19:57 -13.8 °C -15.7 °C 34361.1 hPa NW 18.2 km/h 18.3 km/h 78 % 0 mm 0.0 W/m2 CLR
20:02 -14.1 °C -16.1 °C 34361.1 hPa NW 20.9 km/h 20.9 km/h 78 % 0 mm 0.0 W/m2 CLR
20:07 -14.1 °C -15.9 °C 34361.1 hPa WNW 20.9 km/h 20.9 km/h 79 % 0 mm 0.0 W/m2 CLR
20:08 -14.1 °C -15.9 °C 34361.1 hPa WNW 15.6 km/h 15.6 km/h 79 % 0 mm 0.0 W/m2 CLR
20:13 -14.1 °C -15.9 °C 34361.1 hPa Calm     80 % 0 mm 0.0 W/m2 CLR
20:14 -14.1 °C -15.9 °C 34361.1 hPa Calm     80 % 0 mm 0.0 W/m2 CLR
20:19 -14.1 °C -15.9 °C 34371.3 hPa Calm     80 % 0 mm 0.0 W/m2 CLR
20:21 -14.1 °C -15.9 °C 34371.3 hPa Calm     80 % 0 mm 0.0 W/m2 CLR
20:25 -14.1 °C -15.9 °C 34371.3 hPa Calm     79 % 0 mm 0.0 W/m2 CLR
20:26 -14.1 °C -15.9 °C 34371.3 hPa Calm     80 % 0 mm 0.0 W/m2 CLR
20:31 -14.1 °C -15.9 °C 34384.8 hPa NW 23.8 km/h 23.8 km/h 80 % 0 mm 0.0 W/m2 CLR
20:32 -14.1 °C -15.8 °C 34384.8 hPa NW 26.9 km/h 26.9 km/h 81 % 0 mm 0.0 W/m2 CLR
20:34 -14.1 °C -15.7 °C 34384.8 hPa NW 25.9 km/h 25.9 km/h 82 % 0 mm 0.0 W/m2 CLR
20:37 -13.8 °C -15.4 °C 34384.8 hPa NW 31.1 km/h 31.1 km/h 81 % 0 mm 0.0 W/m2 CLR
20:42 -13.8 °C -15.7 °C 34384.8 hPa NW 29.8 km/h 29.8 km/h 79 % 0 mm 0.0 W/m2 CLR
20:44 -13.8 °C -15.7 °C 34384.8 hPa WNW 29.8 km/h 29.8 km/h 79 % 0 mm 0.0 W/m2 CLR
20:49 -13.8 °C -15.7 °C 34384.8 hPa WNW 29.8 km/h 29.8 km/h 78 % 0 mm 0.0 W/m2 CLR
20:54 -13.8 °C -15.7 °C 34384.8 hPa NW 29.8 km/h 29.8 km/h 78 % 0 mm 0.0 W/m2 CLR
20:55 -13.8 °C -15.7 °C 34384.8 hPa NW 29.8 km/h 29.8 km/h 78 % 0 mm 0.0 W/m2 CLR
21:00 -13.8 °C -15.7 °C 34395 hPa NW 29.8 km/h 29.8 km/h 78 % 0 mm 0.0 W/m2 CLR
21:02 -13.8 °C -15.7 °C 34395 hPa NW 32.8 km/h 32.8 km/h 78 % 0 mm 0.0 W/m2 CLR
21:07 -13.4 °C -15.4 °C 34395 hPa NW 28.5 km/h 28.5 km/h 78 % 0 mm 0.0 W/m2 CLR
21:13 -13.4 °C -15.6 °C 34405.1 hPa NW 35.7 km/h 35.7 km/h 77 % 0 mm 0.0 W/m2 CLR
21:18 -13.2 °C -15.2 °C 34405.1 hPa NW 41.7 km/h 41.7 km/h 77 % 0 mm 0.0 W/m2 CLR
21:19 -13.2 °C -15.2 °C 34405.1 hPa NW 35.7 km/h 35.7 km/h 77 % 0 mm 0.0 W/m2 CLR
21:20 -13.2 °C -15.2 °C 34405.1 hPa NW 36.2 km/h 36.2 km/h 77 % 0 mm 0.0 W/m2 CLR
21:25 -13.2 °C -15.4 °C 34418.7 hPa NNW 35.7 km/h 35.7 km/h 76 % 0 mm 0.0 W/m2 CLR
21:26 -13.2 °C -15.4 °C 34418.7 hPa NW 35.7 km/h 35.7 km/h 76 % 0 mm 0.0 W/m2 CLR
21:30 -13.2 °C -15.2 °C 34418.7 hPa NW 32.8 km/h 34.1 km/h 77 % 0 mm 0.0 W/m2 CLR
21:35 -13.2 °C -15.2 °C 34418.7 hPa NW 41.7 km/h 41.7 km/h 77 % 0 mm 0.0 W/m2 CLR
21:40 -13.2 °C -15.4 °C 34418.7 hPa NW 50.7 km/h 50.7 km/h 76 % 0 mm 0.0 W/m2 CLR
21:41 -13.2 °C -15.4 °C 34428.8 hPa NW 50.7 km/h 50.7 km/h 76 % 0 mm 0.0 W/m2 CLR
21:46 -12.8 °C -15.1 °C 34428.8 hPa NW 44.7 km/h 44.7 km/h 76 % 0 mm 0.0 W/m2 CLR
21:48 -12.8 °C -14.9 °C 34428.8 hPa NW 38.8 km/h 38.8 km/h 77 % 0 mm 0.0 W/m2 CLR
21:52 -12.8 °C -14.9 °C 34428.8 hPa NNW 56.6 km/h 56.6 km/h 77 % 0 mm 0.0 W/m2 CLR
21:53 -12.8 °C -14.9 °C 34428.8 hPa NNW 56.6 km/h 56.6 km/h 77 % 0 mm 0.0 W/m2 CLR
21:57 -12.8 °C -15.1 °C 34428.8 hPa NW 50.7 km/h 50.7 km/h 76 % 0 mm 0.0 W/m2 CLR
22:01 -12.8 °C -15.1 °C 34428.8 hPa WNW 41.7 km/h 41.7 km/h 76 % 0 mm 0.0 W/m2 CLR
22:02 -12.8 °C -15.1 °C 34428.8 hPa NW 38.8 km/h 38.8 km/h 76 % 0 mm 0.0 W/m2 CLR
22:06 -12.8 °C -15.2 °C 34428.8 hPa NW 41.7 km/h 41.7 km/h 75 % 0 mm 0.0 W/m2 CLR
22:07 -12.8 °C -15.1 °C 34428.8 hPa WNW 35.7 km/h 35.7 km/h 76 % 0 mm 0.0 W/m2 CLR
22:08 -12.8 °C -15.1 °C 34428.8 hPa WNW 38.8 km/h 38.8 km/h 76 % 0 mm 0.0 W/m2 CLR
22:12 -12.8 °C -15.2 °C 34428.8 hPa WNW 41.7 km/h 41.7 km/h 75 % 0 mm 0.0 W/m2 CLR
22:17 -12.8 °C -15.1 °C 34442.4 hPa WNW 38.8 km/h 38.8 km/h 76 % 0 mm 0.0 W/m2 CLR
22:22 -13.2 °C -15.4 °C 34442.4 hPa NW 41.7 km/h 41.7 km/h 76 % 0 mm 0.0 W/m2 CLR
22:25 -13.2 °C -15.4 °C 34442.4 hPa NW 35.7 km/h 35.7 km/h 76 % 0 mm 0.0 W/m2 CLR
22:30 -13.2 °C -15.4 °C 34442.4 hPa NW 44.7 km/h 44.7 km/h 76 % 0 mm 0.0 W/m2 CLR
22:34 -12.8 °C -15.1 °C 34452.6 hPa NNW 35.7 km/h 35.7 km/h 76 % 0 mm 0.0 W/m2 CLR
22:37 -12.8 °C -15.1 °C 34452.6 hPa NW 41.7 km/h 41.7 km/h 76 % 0 mm 0.0 W/m2 CLR
22:41 -12.8 °C -15.1 °C 34452.6 hPa NW 50.7 km/h 50.7 km/h 76 % 0 mm 0.0 W/m2 CLR
22:44 -12.8 °C -15.2 °C 34452.6 hPa NW 50.7 km/h 50.7 km/h 75 % 0 mm 0.0 W/m2 CLR
22:49 -12.8 °C -15.2 °C 34462.7 hPa NW 33.6 km/h 33.6 km/h 75 % 0 mm 0.0 W/m2 CLR
22:52 -12.8 °C -15.1 °C 34462.7 hPa WNW 29.8 km/h 29.8 km/h 76 % 0 mm 0.0 W/m2 CLR
22:57 -12.8 °C -15.1 °C 34476.3 hPa NW 44.7 km/h 44.7 km/h 76 % 0 mm 0.0 W/m2 CLR
22:58 -12.8 °C -15.1 °C 34476.3 hPa NW 38.8 km/h 38.8 km/h 76 % 0 mm 0.0 W/m2 CLR
23:02 -12.8 °C -15.1 °C 34476.3 hPa NNW 41.7 km/h 41.7 km/h 76 % 0 mm 0.0 W/m2 CLR
23:04 -12.8 °C -15.1 °C 34476.3 hPa NW 38.8 km/h 38.8 km/h 76 % 0 mm 0.0 W/m2 CLR
23:08 -13.2 °C -15.4 °C 34476.3 hPa NW 32.8 km/h 32.8 km/h 76 % 0 mm 0.0 W/m2 CLR
23:13 -13.2 °C -15.2 °C 34486.4 hPa NW 38.8 km/h 38.8 km/h 77 % 0 mm 0.0 W/m2 CLR
23:14 -13.2 °C -15.2 °C 34486.4 hPa NW 38.8 km/h 38.8 km/h 77 % 0 mm 0.0 W/m2 CLR
23:19 -13.2 °C -15.4 °C 34486.4 hPa WNW 29.8 km/h 29.8 km/h 76 % 0 mm 0.0 W/m2 CLR
23:20 -13.2 °C -15.4 °C 34476.3 hPa NW 33.6 km/h 33.6 km/h 76 % 0 mm 0.0 W/m2 CLR
23:22 -13.2 °C -15.4 °C 34486.4 hPa NW 50.7 km/h 50.7 km/h 76 % 0 mm 0.0 W/m2 CLR
23:26 -13.2 °C -15.4 °C 34486.4 hPa WNW 38.8 km/h 38.8 km/h 76 % 0 mm 0.0 W/m2 CLR
23:30 -13.2 °C -15.4 °C 34486.4 hPa WNW 36.2 km/h 36.2 km/h 76 % 0 mm 0.0 W/m2 CLR
23:31 -13.2 °C -15.4 °C 34486.4 hPa NW 38.8 km/h 38.8 km/h 76 % 0 mm 0.0 W/m2 CLR
23:36 -13.2 °C -15.4 °C 34486.4 hPa NW 29.8 km/h 29.8 km/h 76 % 0 mm 0.0 W/m2 CLR
23:37 -13.2 °C -15.4 °C 34486.4 hPa NW 31.1 km/h 31.1 km/h 76 % 0 mm 0.0 W/m2 CLR
23:42 -13.2 °C -15.4 °C 34486.4 hPa NNW 35.7 km/h 35.7 km/h 76 % 0 mm 0.0 W/m2 CLR
23:47 -13.2 °C -15.4 °C 34486.4 hPa NW 29.8 km/h 29.8 km/h 76 % 0 mm 0.0 W/m2 CLR
23:49 -13.2 °C -15.4 °C 34486.4 hPa NW 29.8 km/h 29.8 km/h 76 % 0 mm 0.0 W/m2 CLR
23:51 -13.2 °C -15.4 °C 34486.4 hPa NNW 35.7 km/h 35.7 km/h 76 % 0 mm 0.0 W/m2 CLR
23:55 -13.2 °C -15.4 °C 34486.4 hPa NNW 36.2 km/h 36.2 km/h 76 % 0 mm 0.0 W/m2 CLR
Lo Temps de Massalio
Compliments of Weather Underground - 1.75 mb